Kansas City International Airport
KMCI : now visible

Airfield :











YOU CAN JOIN US ON...

 
LOGIN :

Register | Disclaimer

   EN    FR    IT 

 









Legend :    VFR   Marginal VFR   IFR   Intensive IFR   Very Intensive IFR
Visi :
Ceiling :
>= 8 km
>= 3000ft
5 to 8 km
1000 to 3000 ft
1500m to 5 km
500 to 1000 ft
800 to 1500m
200 to 500 ft
< 800m
< 200 ft
Symbols :   Thunderstorms  Fog  Heavy snow  Heavy precipitations  Wind > 20 kt







- Airport Elevation : 1026 ft
- IATA code : MCI


KMCI - Kansas City International

CURRENT METAR :
  • 201553Z 16011KT 10SM SCT085 BKN250 26/21 A3004 RMK AO2 SLP163 T02610206 $

EXPIRED METARs :
  • 201453Z 18010KT 10SM BKN085 BKN250 25/20 A3006 RMK AO2 SLP167 T02500200 51016
  • 201353Z 18010KT 10SM BKN150 BKN250 24/21 A3005 RMK AO2 SLP165 T02440206

TAF KMCI
Valid from the 20 at 12:00 until the 21 at 12:00 UTC


201125Z 2012/2112 16006KT P6SM SKC
FM201600 17011KT P6SM SCT040 SCT250
FM210100 17010G20KT P6SM BKN040
FM210800 17009KT P6SM VCTS BKN010CB
TEMPO 2108/2112 4SM -TSRA BR BKN008CB
No reported NOTAMs for that airfield.



MET'MAP, your aeronautical weather chart ! - Copyright ORBIFLY December 2007 - Disclaimer

ORBIFLY MET'MAP TEAM :

Programming & Development : Alexandra Zaïnal
Concept & Development : Baudouin d'Aumeries
Co-Development & Prog : Marc-Olivier Méhu
Technical & hardware support : Manuel Goepfert

Contact : metmap@orbifly.com




SOURCES & CREDITS :

   NOAA       Earth
Advisory